sensor_id;sensor_type;location;lat;lon;timestamp;P1;durP1;ratioP1;P2;durP2;ratioP2
3865;SDS011;1948;53.250;10.412;2024-02-21T00:01:31;63.67;;;18.27;;
3865;SDS011;1948;53.250;10.412;2024-02-21T00:03:58;49.80;;;17.50;;
3865;SDS011;1948;53.250;10.412;2024-02-21T00:06:28;52.37;;;18.30;;
3865;SDS011;1948;53.250;10.412;2024-02-21T00:08:55;48.70;;;17.93;;
3865;SDS011;1948;53.250;10.412;2024-02-21T00:11:24;44.93;;;17.90;;
3865;SDS011;1948;53.250;10.412;2024-02-21T00:13:56;43.47;;;16.63;;
3865;SDS011;1948;53.250;10.412;2024-02-21T00:16:24;44.20;;;16.87;;
3865;SDS011;1948;53.250;10.412;2024-02-21T00:18:53;55.17;;;16.97;;
3865;SDS011;1948;53.250;10.412;2024-02-21T00:21:20;43.37;;;17.30;;
3865;SDS011;1948;53.250;10.412;2024-02-21T00:23:48;48.20;;;17.37;;
3865;SDS011;1948;53.250;10.412;2024-02-21T00:26:17;41.20;;;15.70;;
3865;SDS011;1948;53.250;10.412;2024-02-21T00:28:44;39.07;;;17.13;;
3865;SDS011;1948;53.250;10.412;2024-02-21T00:31:14;41.70;;;17.10;;
3865;SDS011;1948;53.250;10.412;2024-02-21T00:33:44;37.77;;;17.33;;
3865;SDS011;1948;53.250;10.412;2024-02-21T00:36:13;49.77;;;17.47;;
3865;SDS011;1948;53.250;10.412;2024-02-21T00:38:41;35.53;;;16.60;;
3865;SDS011;1948;53.250;10.412;2024-02-21T00:41:08;40.33;;;16.77;;
3865;SDS011;1948;53.250;10.412;2024-02-21T00:43:35;40.57;;;17.07;;
3865;SDS011;1948;53.250;10.412;2024-02-21T00:46:02;44.37;;;17.07;;
3865;SDS011;1948;53.250;10.412;2024-02-21T00:48:34;45.00;;;18.60;;
3865;SDS011;1948;53.250;10.412;2024-02-21T00:51:04;45.00;;;15.83;;
3865;SDS011;1948;53.250;10.412;2024-02-21T00:53:36;33.80;;;15.67;;
3865;SDS011;1948;53.250;10.412;2024-02-21T00:56:05;46.87;;;18.03;;
3865;SDS011;1948;53.250;10.412;2024-02-21T00:58:32;35.90;;;17.80;;
3865;SDS011;1948;53.250;10.412;2024-02-21T01:01:02;52.13;;;16.77;;
3865;SDS011;1948;53.250;10.412;2024-02-21T01:03:29;47.03;;;17.90;;
3865;SDS011;1948;53.250;10.412;2024-02-21T01:05:56;37.07;;;16.60;;
3865;SDS011;1948;53.250;10.412;2024-02-21T01:08:26;40.40;;;18.03;;
3865;SDS011;1948;53.250;10.412;2024-02-21T01:10:53;40.83;;;17.13;;
3865;SDS011;1948;53.250;10.412;2024-02-21T01:13:23;41.73;;;18.23;;
3865;SDS011;1948;53.250;10.412;2024-02-21T01:15:50;36.73;;;17.07;;
3865;SDS011;1948;53.250;10.412;2024-02-21T01:18:17;47.73;;;18.70;;
3865;SDS011;1948;53.250;10.412;2024-02-21T01:20:47;39.50;;;17.53;;
3865;SDS011;1948;53.250;10.412;2024-02-21T01:23:13;45.70;;;17.23;;
3865;SDS011;1948;53.250;10.412;2024-02-21T01:25:40;50.53;;;18.00;;
3865;SDS011;1948;53.250;10.412;2024-02-21T01:28:10;42.30;;;17.50;;
3865;SDS011;1948;53.250;10.412;2024-02-21T01:30:37;31.57;;;18.17;;
3865;SDS011;1948;53.250;10.412;2024-02-21T01:33:04;38.83;;;18.40;;
3865;SDS011;1948;53.250;10.412;2024-02-21T01:35:31;41.30;;;17.40;;
3865;SDS011;1948;53.250;10.412;2024-02-21T01:38:00;41.10;;;19.00;;
3865;SDS011;1948;53.250;10.412;2024-02-21T01:40:28;51.33;;;18.70;;
3865;SDS011;1948;53.250;10.412;2024-02-21T01:42:55;47.23;;;17.17;;
3865;SDS011;1948;53.250;10.412;2024-02-21T01:45:27;37.73;;;17.67;;
3865;SDS011;1948;53.250;10.412;2024-02-21T01:47:54;45.70;;;19.73;;
3865;SDS011;1948;53.250;10.412;2024-02-21T01:50:21;39.93;;;18.70;;
3865;SDS011;1948;53.250;10.412;2024-02-21T01:52:49;41.67;;;18.90;;
3865;SDS011;1948;53.250;10.412;2024-02-21T01:55:19;43.83;;;19.27;;
3865;SDS011;1948;53.250;10.412;2024-02-21T01:57:47;46.50;;;21.43;;
3865;SDS011;1948;53.250;10.412;2024-02-21T02:00:14;53.53;;;21.53;;
3865;SDS011;1948;53.250;10.412;2024-02-21T02:02:42;46.27;;;20.60;;
3865;SDS011;1948;53.250;10.412;2024-02-21T02:05:11;44.00;;;19.27;;
3865;SDS011;1948;53.250;10.412;2024-02-21T02:07:38;51.37;;;20.50;;
3865;SDS011;1948;53.250;10.412;2024-02-21T02:10:05;41.30;;;20.07;;
3865;SDS011;1948;53.250;10.412;2024-02-21T02:12:33;48.37;;;20.60;;
3865;SDS011;1948;53.250;10.412;2024-02-21T02:15:01;48.33;;;20.30;;
3865;SDS011;1948;53.250;10.412;2024-02-21T02:17:35;43.30;;;19.90;;
3865;SDS011;1948;53.250;10.412;2024-02-21T02:20:02;56.13;;;21.47;;
3865;SDS011;1948;53.250;10.412;2024-02-21T02:22:31;48.07;;;20.83;;
3865;SDS011;1948;53.250;10.412;2024-02-21T02:25:03;44.70;;;20.80;;
3865;SDS011;1948;53.250;10.412;2024-02-21T02:27:31;53.33;;;22.33;;
3865;SDS011;1948;53.250;10.412;2024-02-21T02:29:58;47.37;;;21.67;;
3865;SDS011;1948;53.250;10.412;2024-02-21T02:32:27;40.60;;;22.07;;
3865;SDS011;1948;53.250;10.412;2024-02-21T02:34:56;52.00;;;22.03;;
3865;SDS011;1948;53.250;10.412;2024-02-21T02:37:24;57.93;;;21.43;;
3865;SDS011;1948;53.250;10.412;2024-02-21T02:39:51;51.57;;;22.57;;
3865;SDS011;1948;53.250;10.412;2024-02-21T02:42:19;46.27;;;21.60;;
3865;SDS011;1948;53.250;10.412;2024-02-21T02:44:48;51.53;;;20.60;;
3865;SDS011;1948;53.250;10.412;2024-02-21T02:47:17;46.40;;;21.20;;
3865;SDS011;1948;53.250;10.412;2024-02-21T02:49:46;47.80;;;20.03;;
3865;SDS011;1948;53.250;10.412;2024-02-21T02:52:17;42.13;;;21.40;;
3865;SDS011;1948;53.250;10.412;2024-02-21T02:54:44;53.13;;;22.00;;
3865;SDS011;1948;53.250;10.412;2024-02-21T02:57:12;51.93;;;21.30;;
3865;SDS011;1948;53.250;10.412;2024-02-21T02:59:41;46.57;;;22.17;;
3865;SDS011;1948;53.250;10.412;2024-02-21T03:02:08;43.87;;;22.20;;
3865;SDS011;1948;53.250;10.412;2024-02-21T03:04:35;60.00;;;23.20;;
3865;SDS011;1948;53.250;10.412;2024-02-21T03:07:02;51.73;;;22.73;;
3865;SDS011;1948;53.250;10.412;2024-02-21T03:09:29;46.80;;;20.90;;
3865;SDS011;1948;53.250;10.412;2024-02-21T03:11:56;51.20;;;22.17;;
3865;SDS011;1948;53.250;10.412;2024-02-21T03:14:28;47.40;;;22.43;;
3865;SDS011;1948;53.250;10.412;2024-02-21T03:16:56;45.23;;;22.00;;
3865;SDS011;1948;53.250;10.412;2024-02-21T03:19:25;50.30;;;22.90;;
3865;SDS011;1948;53.250;10.412;2024-02-21T03:21:53;65.83;;;24.60;;
3865;SDS011;1948;53.250;10.412;2024-02-21T03:24:20;64.17;;;23.47;;
3865;SDS011;1948;53.250;10.412;2024-02-21T03:26:49;53.30;;;22.90;;
3865;SDS011;1948;53.250;10.412;2024-02-21T03:29:21;56.43;;;22.70;;
3865;SDS011;1948;53.250;10.412;2024-02-21T03:31:50;48.47;;;23.27;;
3865;SDS011;1948;53.250;10.412;2024-02-21T03:34:17;58.70;;;21.23;;
3865;SDS011;1948;53.250;10.412;2024-02-21T03:36:47;44.40;;;20.37;;
3865;SDS011;1948;53.250;10.412;2024-02-21T03:39:14;54.20;;;22.90;;
3865;SDS011;1948;53.250;10.412;2024-02-21T03:41:41;54.17;;;22.37;;
3865;SDS011;1948;53.250;10.412;2024-02-21T03:44:11;52.03;;;22.70;;
3865;SDS011;1948;53.250;10.412;2024-02-21T03:46:41;56.40;;;22.30;;
3865;SDS011;1948;53.250;10.412;2024-02-21T03:49:08;58.50;;;22.37;;
3865;SDS011;1948;53.250;10.412;2024-02-21T03:51:35;56.13;;;21.23;;
3865;SDS011;1948;53.250;10.412;2024-02-21T03:54:04;42.40;;;18.93;;
3865;SDS011;1948;53.250;10.412;2024-02-21T03:56:37;48.77;;;21.27;;
3865;SDS011;1948;53.250;10.412;2024-02-21T03:59:09;53.63;;;21.57;;
3865;SDS011;1948;53.250;10.412;2024-02-21T04:01:36;57.57;;;21.87;;
3865;SDS011;1948;53.250;10.412;2024-02-21T04:04:03;39.03;;;19.67;;
3865;SDS011;1948;53.250;10.412;2024-02-21T04:06:32;40.40;;;20.30;;
3865;SDS011;1948;53.250;10.412;2024-02-21T04:08:59;50.10;;;20.83;;
3865;SDS011;1948;53.250;10.412;2024-02-21T04:11:29;48.40;;;21.47;;
3865;SDS011;1948;53.250;10.412;2024-02-21T04:13:56;54.10;;;19.93;;
3865;SDS011;1948;53.250;10.412;2024-02-21T04:16:23;50.70;;;20.60;;
3865;SDS011;1948;53.250;10.412;2024-02-21T04:18:50;58.73;;;19.73;;
3865;SDS011;1948;53.250;10.412;2024-02-21T04:21:18;39.33;;;19.30;;
3865;SDS011;1948;53.250;10.412;2024-02-21T04:23:47;43.90;;;20.63;;
3865;SDS011;1948;53.250;10.412;2024-02-21T04:26:14;53.20;;;20.40;;
3865;SDS011;1948;53.250;10.412;2024-02-21T04:28:42;43.47;;;19.40;;
3865;SDS011;1948;53.250;10.412;2024-02-21T04:31:11;46.43;;;19.23;;
3865;SDS011;1948;53.250;10.412;2024-02-21T04:33:41;45.40;;;18.70;;
3865;SDS011;1948;53.250;10.412;2024-02-21T04:36:08;36.67;;;18.40;;
3865;SDS011;1948;53.250;10.412;2024-02-21T04:38:38;42.87;;;18.67;;
3865;SDS011;1948;53.250;10.412;2024-02-21T04:41:07;49.27;;;20.00;;
3865;SDS011;1948;53.250;10.412;2024-02-21T04:43:34;49.37;;;20.70;;
3865;SDS011;1948;53.250;10.412;2024-02-21T04:46:07;39.47;;;19.50;;
3865;SDS011;1948;53.250;10.412;2024-02-21T04:48:34;52.40;;;21.07;;
3865;SDS011;1948;53.250;10.412;2024-02-21T04:51:04;54.57;;;19.70;;
3865;SDS011;1948;53.250;10.412;2024-02-21T04:53:31;55.47;;;21.33;;
3865;SDS011;1948;53.250;10.412;2024-02-21T04:55:58;44.87;;;18.63;;
3865;SDS011;1948;53.250;10.412;2024-02-21T04:58:28;58.07;;;20.03;;
3865;SDS011;1948;53.250;10.412;2024-02-21T05:00:55;40.60;;;19.30;;
3865;SDS011;1948;53.250;10.412;2024-02-21T05:03:23;43.60;;;19.20;;
3865;SDS011;1948;53.250;10.412;2024-02-21T05:05:50;51.03;;;18.80;;
3865;SDS011;1948;53.250;10.412;2024-02-21T05:08:20;36.63;;;19.47;;
3865;SDS011;1948;53.250;10.412;2024-02-21T05:10:49;40.30;;;18.57;;
3865;SDS011;1948;53.250;10.412;2024-02-21T05:13:16;39.97;;;18.97;;
3865;SDS011;1948;53.250;10.412;2024-02-21T05:15:43;32.97;;;19.03;;
3865;SDS011;1948;53.250;10.412;2024-02-21T05:18:13;35.70;;;18.50;;
3865;SDS011;1948;53.250;10.412;2024-02-21T05:20:40;44.00;;;20.53;;
3865;SDS011;1948;53.250;10.412;2024-02-21T05:23:07;37.87;;;19.40;;
3865;SDS011;1948;53.250;10.412;2024-02-21T05:25:34;37.80;;;18.47;;
3865;SDS011;1948;53.250;10.412;2024-02-21T05:28:01;44.90;;;18.70;;
3865;SDS011;1948;53.250;10.412;2024-02-21T05:30:29;36.00;;;18.47;;
3865;SDS011;1948;53.250;10.412;2024-02-21T05:32:56;37.90;;;19.13;;
3865;SDS011;1948;53.250;10.412;2024-02-21T05:35:26;40.00;;;19.63;;
3865;SDS011;1948;53.250;10.412;2024-02-21T05:37:56;35.83;;;17.60;;
3865;SDS011;1948;53.250;10.412;2024-02-21T05:40:23;40.20;;;19.47;;
3865;SDS011;1948;53.250;10.412;2024-02-21T05:42:51;33.90;;;16.80;;
3865;SDS011;1948;53.250;10.412;2024-02-21T05:45:18;29.73;;;16.80;;
3865;SDS011;1948;53.250;10.412;2024-02-21T05:47:48;43.03;;;18.47;;
3865;SDS011;1948;53.250;10.412;2024-02-21T05:50:15;28.57;;;17.37;;
3865;SDS011;1948;53.250;10.412;2024-02-21T05:52:42;30.83;;;17.63;;
3865;SDS011;1948;53.250;10.412;2024-02-21T05:55:09;32.03;;;17.90;;
3865;SDS011;1948;53.250;10.412;2024-02-21T05:57:36;36.17;;;17.83;;
3865;SDS011;1948;53.250;10.412;2024-02-21T06:00:05;28.63;;;16.93;;
3865;SDS011;1948;53.250;10.412;2024-02-21T06:02:33;33.40;;;17.40;;
3865;SDS011;1948;53.250;10.412;2024-02-21T06:05:00;36.80;;;17.27;;
3865;SDS011;1948;53.250;10.412;2024-02-21T06:07:29;26.43;;;16.03;;
3865;SDS011;1948;53.250;10.412;2024-02-21T06:10:02;31.30;;;17.37;;
3865;SDS011;1948;53.250;10.412;2024-02-21T06:12:35;38.80;;;16.67;;
3865;SDS011;1948;53.250;10.412;2024-02-21T06:15:04;25.87;;;15.77;;
3865;SDS011;1948;53.250;10.412;2024-02-21T06:17:34;29.43;;;16.50;;
3865;SDS011;1948;53.250;10.412;2024-02-21T06:20:04;39.67;;;15.67;;
3865;SDS011;1948;53.250;10.412;2024-02-21T06:22:32;30.80;;;15.20;;
3865;SDS011;1948;53.250;10.412;2024-02-21T06:25:01;28.00;;;16.10;;
3865;SDS011;1948;53.250;10.412;2024-02-21T06:27:28;31.80;;;16.90;;
3865;SDS011;1948;53.250;10.412;2024-02-21T06:29:58;27.17;;;14.90;;
3865;SDS011;1948;53.250;10.412;2024-02-21T06:32:25;24.97;;;14.50;;
3865;SDS011;1948;53.250;10.412;2024-02-21T06:34:54;25.70;;;14.20;;
3865;SDS011;1948;53.250;10.412;2024-02-21T06:37:31;32.70;;;15.37;;
3865;SDS011;1948;53.250;10.412;2024-02-21T06:39:58;24.33;;;13.50;;
3865;SDS011;1948;53.250;10.412;2024-02-21T06:42:25;22.73;;;13.97;;
3865;SDS011;1948;53.250;10.412;2024-02-21T06:44:55;25.60;;;14.20;;
3865;SDS011;1948;53.250;10.412;2024-02-21T06:47:25;22.07;;;14.10;;
3865;SDS011;1948;53.250;10.412;2024-02-21T06:49:55;22.10;;;13.20;;
3865;SDS011;1948;53.250;10.412;2024-02-21T06:52:24;23.17;;;13.90;;
3865;SDS011;1948;53.250;10.412;2024-02-21T06:54:55;23.03;;;13.80;;
3865;SDS011;1948;53.250;10.412;2024-02-21T06:57:23;22.17;;;13.37;;
3865;SDS011;1948;53.250;10.412;2024-02-21T06:59:50;24.10;;;13.43;;
3865;SDS011;1948;53.250;10.412;2024-02-21T07:02:21;21.53;;;13.40;;
3865;SDS011;1948;53.250;10.412;2024-02-21T07:04:48;17.00;;;12.90;;
3865;SDS011;1948;53.250;10.412;2024-02-21T07:07:16;14.87;;;11.60;;
3865;SDS011;1948;53.250;10.412;2024-02-21T07:09:45;25.57;;;12.67;;
3865;SDS011;1948;53.250;10.412;2024-02-21T07:12:14;17.00;;;11.30;;
3865;SDS011;1948;53.250;10.412;2024-02-21T07:14:41;15.60;;;11.23;;
3865;SDS011;1948;53.250;10.412;2024-02-21T07:17:08;18.17;;;11.40;;
3865;SDS011;1948;53.250;10.412;2024-02-21T07:19:38;23.57;;;11.67;;
3865;SDS011;1948;53.250;10.412;2024-02-21T07:22:07;15.97;;;10.27;;
3865;SDS011;1948;53.250;10.412;2024-02-21T07:24:35;11.83;;;10.47;;
3865;SDS011;1948;53.250;10.412;2024-02-21T07:27:02;13.60;;;10.23;;
3865;SDS011;1948;53.250;10.412;2024-02-21T07:29:31;11.63;;;9.40;;
3865;SDS011;1948;53.250;10.412;2024-02-21T07:31:58;10.60;;;9.27;;
3865;SDS011;1948;53.250;10.412;2024-02-21T07:34:26;11.63;;;8.87;;
3865;SDS011;1948;53.250;10.412;2024-02-21T07:36:56;15.93;;;9.97;;
3865;SDS011;1948;53.250;10.412;2024-02-21T07:39:23;10.77;;;8.70;;
3865;SDS011;1948;53.250;10.412;2024-02-21T07:41:56;10.60;;;9.67;;
3865;SDS011;1948;53.250;10.412;2024-02-21T07:44:23;10.50;;;9.40;;
3865;SDS011;1948;53.250;10.412;2024-02-21T07:46:50;15.67;;;9.77;;
3865;SDS011;1948;53.250;10.412;2024-02-21T07:49:19;10.87;;;8.57;;
3865;SDS011;1948;53.250;10.412;2024-02-21T07:51:49;11.50;;;8.40;;
3865;SDS011;1948;53.250;10.412;2024-02-21T07:54:19;12.00;;;8.90;;
3865;SDS011;1948;53.250;10.412;2024-02-21T07:56:46;14.97;;;8.97;;
3865;SDS011;1948;53.250;10.412;2024-02-21T07:59:16;10.00;;;9.10;;
3865;SDS011;1948;53.250;10.412;2024-02-21T08:01:43;18.03;;;9.03;;
3865;SDS011;1948;53.250;10.412;2024-02-21T08:04:13;12.13;;;8.90;;
3865;SDS011;1948;53.250;10.412;2024-02-21T08:06:41;10.87;;;7.77;;
3865;SDS011;1948;53.250;10.412;2024-02-21T08:09:09;10.10;;;8.53;;
3865;SDS011;1948;53.250;10.412;2024-02-21T08:11:39;12.40;;;8.63;;
3865;SDS011;1948;53.250;10.412;2024-02-21T08:14:06;7.80;;;7.17;;
3865;SDS011;1948;53.250;10.412;2024-02-21T08:16:34;13.57;;;9.07;;
3865;SDS011;1948;53.250;10.412;2024-02-21T08:19:01;9.57;;;7.90;;
3865;SDS011;1948;53.250;10.412;2024-02-21T08:21:30;11.53;;;9.53;;
3865;SDS011;1948;53.250;10.412;2024-02-21T08:23:57;10.83;;;9.23;;
3865;SDS011;1948;53.250;10.412;2024-02-21T08:26:24;9.83;;;7.67;;
3865;SDS011;1948;53.250;10.412;2024-02-21T08:28:54;10.00;;;9.07;;
3865;SDS011;1948;53.250;10.412;2024-02-21T08:31:21;11.03;;;8.43;;
3865;SDS011;1948;53.250;10.412;2024-02-21T08:33:57;9.17;;;8.23;;
3865;SDS011;1948;53.250;10.412;2024-02-21T08:36:33;8.87;;;8.10;;
3865;SDS011;1948;53.250;10.412;2024-02-21T08:39:03;15.20;;;9.37;;
3865;SDS011;1948;53.250;10.412;2024-02-21T08:41:36;12.77;;;9.20;;
3865;SDS011;1948;53.250;10.412;2024-02-21T08:44:22;9.40;;;8.70;;
3865;SDS011;1948;53.250;10.412;2024-02-21T08:46:55;9.13;;;8.30;;
3865;SDS011;1948;53.250;10.412;2024-02-21T08:49:30;11.70;;;8.40;;
3865;SDS011;1948;53.250;10.412;2024-02-21T08:52:00;11.43;;;8.50;;
3865;SDS011;1948;53.250;10.412;2024-02-21T08:54:29;13.50;;;8.90;;
3865;SDS011;1948;53.250;10.412;2024-02-21T08:57:00;8.90;;;8.07;;
3865;SDS011;1948;53.250;10.412;2024-02-21T08:59:27;8.90;;;8.10;;
3865;SDS011;1948;53.250;10.412;2024-02-21T09:01:56;11.33;;;9.53;;
3865;SDS011;1948;53.250;10.412;2024-02-21T09:04:23;9.33;;;8.30;;
3865;SDS011;1948;53.250;10.412;2024-02-21T09:06:50;10.60;;;9.20;;
3865;SDS011;1948;53.250;10.412;2024-02-21T09:09:20;13.23;;;8.53;;
3865;SDS011;1948;53.250;10.412;2024-02-21T09:11:47;14.53;;;8.13;;
3865;SDS011;1948;53.250;10.412;2024-02-21T09:14:15;13.43;;;8.90;;
3865;SDS011;1948;53.250;10.412;2024-02-21T09:16:41;8.43;;;7.70;;
3865;SDS011;1948;53.250;10.412;2024-02-21T09:19:11;9.83;;;8.10;;
3865;SDS011;1948;53.250;10.412;2024-02-21T09:21:41;8.97;;;8.03;;
3865;SDS011;1948;53.250;10.412;2024-02-21T09:24:10;8.40;;;7.60;;
3865;SDS011;1948;53.250;10.412;2024-02-21T09:26:41;9.13;;;7.97;;
3865;SDS011;1948;53.250;10.412;2024-02-21T09:29:08;9.10;;;8.03;;
3865;SDS011;1948;53.250;10.412;2024-02-21T09:31:35;8.57;;;7.73;;
3865;SDS011;1948;53.250;10.412;2024-02-21T09:34:05;8.90;;;8.10;;
3865;SDS011;1948;53.250;10.412;2024-02-21T09:36:34;9.17;;;8.17;;
3865;SDS011;1948;53.250;10.412;2024-02-21T09:39:01;12.67;;;10.20;;
3865;SDS011;1948;53.250;10.412;2024-02-21T09:41:31;9.87;;;8.17;;
3865;SDS011;1948;53.250;10.412;2024-02-21T09:44:06;11.43;;;8.33;;
3865;SDS011;1948;53.250;10.412;2024-02-21T09:52:06;19.03;;;11.20;;
3865;SDS011;1948;53.250;10.412;2024-02-21T09:54:39;20.23;;;12.40;;
3865;SDS011;1948;53.250;10.412;2024-02-21T09:57:10;20.33;;;13.30;;
3865;SDS011;1948;53.250;10.412;2024-02-21T09:59:40;17.93;;;13.20;;
3865;SDS011;1948;53.250;10.412;2024-02-21T10:02:12;25.00;;;15.17;;
3865;SDS011;1948;53.250;10.412;2024-02-21T10:04:40;22.97;;;15.83;;
3865;SDS011;1948;53.250;10.412;2024-02-21T10:07:07;22.80;;;14.00;;
3865;SDS011;1948;53.250;10.412;2024-02-21T10:09:35;23.40;;;14.60;;
3865;SDS011;1948;53.250;10.412;2024-02-21T10:12:09;24.13;;;15.50;;
3865;SDS011;1948;53.250;10.412;2024-02-21T10:14:39;31.83;;;16.37;;
3865;SDS011;1948;53.250;10.412;2024-02-21T10:17:06;33.13;;;16.90;;
3865;SDS011;1948;53.250;10.412;2024-02-21T10:19:37;30.17;;;16.23;;
3865;SDS011;1948;53.250;10.412;2024-02-21T10:22:07;28.60;;;17.70;;
3865;SDS011;1948;53.250;10.412;2024-02-21T10:24:36;35.83;;;16.83;;
3865;SDS011;1948;53.250;10.412;2024-02-21T10:27:10;41.40;;;16.30;;
3865;SDS011;1948;53.250;10.412;2024-02-21T10:29:38;34.80;;;16.43;;
3865;SDS011;1948;53.250;10.412;2024-02-21T10:32:13;27.53;;;16.37;;
3865;SDS011;1948;53.250;10.412;2024-02-21T10:34:49;32.43;;;16.57;;
3865;SDS011;1948;53.250;10.412;2024-02-21T10:37:18;28.10;;;16.70;;
3865;SDS011;1948;53.250;10.412;2024-02-21T10:39:49;33.50;;;15.77;;
3865;SDS011;1948;53.250;10.412;2024-02-21T10:42:21;26.60;;;16.17;;
3865;SDS011;1948;53.250;10.412;2024-02-21T10:45:00;28.60;;;15.27;;
3865;SDS011;1948;53.250;10.412;2024-02-21T10:47:30;27.20;;;15.23;;
3865;SDS011;1948;53.250;10.412;2024-02-21T10:50:02;27.63;;;15.17;;
3865;SDS011;1948;53.250;10.412;2024-02-21T10:55:10;29.00;;;11.83;;
3865;SDS011;1948;53.250;10.412;2024-02-21T10:57:45;21.23;;;13.03;;
3865;SDS011;1948;53.250;10.412;2024-02-21T11:00:14;18.80;;;12.13;;
3865;SDS011;1948;53.250;10.412;2024-02-21T11:02:50;24.73;;;11.33;;
3865;SDS011;1948;53.250;10.412;2024-02-21T11:05:17;15.87;;;11.20;;
3865;SDS011;1948;53.250;10.412;2024-02-21T11:07:45;18.10;;;10.50;;
3865;SDS011;1948;53.250;10.412;2024-02-21T11:10:24;19.90;;;9.73;;
3865;SDS011;1948;53.250;10.412;2024-02-21T11:12:54;15.00;;;9.87;;
3865;SDS011;1948;53.250;10.412;2024-02-21T11:15:37;18.10;;;11.40;;
3865;SDS011;1948;53.250;10.412;2024-02-21T11:18:07;20.87;;;10.13;;
3865;SDS011;1948;53.250;10.412;2024-02-21T11:20:35;19.80;;;10.37;;
3865;SDS011;1948;53.250;10.412;2024-02-21T11:23:03;20.27;;;10.87;;
3865;SDS011;1948;53.250;10.412;2024-02-21T11:25:33;18.33;;;11.17;;
3865;SDS011;1948;53.250;10.412;2024-02-21T11:28:03;22.27;;;11.30;;
3865;SDS011;1948;53.250;10.412;2024-02-21T11:30:31;19.67;;;11.50;;
3865;SDS011;1948;53.250;10.412;2024-02-21T11:33:00;24.40;;;11.83;;
3865;SDS011;1948;53.250;10.412;2024-02-21T11:35:35;22.90;;;11.63;;
3865;SDS011;1948;53.250;10.412;2024-02-21T11:38:10;19.43;;;12.23;;
3865;SDS011;1948;53.250;10.412;2024-02-21T11:40:46;30.40;;;12.80;;
3865;SDS011;1948;53.250;10.412;2024-02-21T11:43:14;26.27;;;14.67;;
3865;SDS011;1948;53.250;10.412;2024-02-21T11:45:43;26.43;;;13.50;;
3865;SDS011;1948;53.250;10.412;2024-02-21T11:48:10;25.30;;;13.70;;
3865;SDS011;1948;53.250;10.412;2024-02-21T11:50:39;25.20;;;13.80;;
3865;SDS011;1948;53.250;10.412;2024-02-21T11:53:06;36.10;;;15.90;;
3865;SDS011;1948;53.250;10.412;2024-02-21T11:55:36;28.57;;;15.30;;
3865;SDS011;1948;53.250;10.412;2024-02-21T11:58:03;25.23;;;15.37;;
3865;SDS011;1948;53.250;10.412;2024-02-21T12:00:32;31.53;;;16.77;;
3865;SDS011;1948;53.250;10.412;2024-02-21T12:02:59;29.20;;;16.20;;
3865;SDS011;1948;53.250;10.412;2024-02-21T12:05:29;32.30;;;17.13;;
3865;SDS011;1948;53.250;10.412;2024-02-21T12:07:56;33.53;;;18.37;;
3865;SDS011;1948;53.250;10.412;2024-02-21T12:10:27;29.87;;;15.90;;
3865;SDS011;1948;53.250;10.412;2024-02-21T12:12:54;31.40;;;16.37;;
3865;SDS011;1948;53.250;10.412;2024-02-21T12:15:35;32.43;;;17.90;;
3865;SDS011;1948;53.250;10.412;2024-02-21T12:18:07;32.73;;;17.40;;
3865;SDS011;1948;53.250;10.412;2024-02-21T12:20:36;36.37;;;19.30;;
3865;SDS011;1948;53.250;10.412;2024-02-21T12:23:03;31.80;;;16.80;;
3865;SDS011;1948;53.250;10.412;2024-02-21T12:25:34;33.40;;;17.80;;
3865;SDS011;1948;53.250;10.412;2024-02-21T12:28:04;37.33;;;17.83;;
3865;SDS011;1948;53.250;10.412;2024-02-21T12:30:31;38.23;;;18.10;;
3865;SDS011;1948;53.250;10.412;2024-02-21T12:32:59;27.43;;;17.67;;
3865;SDS011;1948;53.250;10.412;2024-02-21T12:35:31;31.00;;;16.00;;
3865;SDS011;1948;53.250;10.412;2024-02-21T12:37:59;29.40;;;17.23;;
3865;SDS011;1948;53.250;10.412;2024-02-21T12:40:28;35.70;;;17.20;;
3865;SDS011;1948;53.250;10.412;2024-02-21T12:42:59;31.93;;;16.43;;
3865;SDS011;1948;53.250;10.412;2024-02-21T12:45:29;27.20;;;14.83;;
3865;SDS011;1948;53.250;10.412;2024-02-21T12:47:56;25.43;;;15.30;;
3865;SDS011;1948;53.250;10.412;2024-02-21T12:50:24;30.97;;;15.07;;
3865;SDS011;1948;53.250;10.412;2024-02-21T12:52:52;26.13;;;14.80;;
3865;SDS011;1948;53.250;10.412;2024-02-21T12:55:19;31.30;;;13.97;;
3865;SDS011;1948;53.250;10.412;2024-02-21T12:57:46;25.90;;;13.90;;
3865;SDS011;1948;53.250;10.412;2024-02-21T13:00:15;26.13;;;13.87;;
3865;SDS011;1948;53.250;10.412;2024-02-21T13:02:43;21.63;;;14.33;;
3865;SDS011;1948;53.250;10.412;2024-02-21T13:05:10;15.97;;;11.87;;
3865;SDS011;1948;53.250;10.412;2024-02-21T13:07:38;32.67;;;12.87;;
3865;SDS011;1948;53.250;10.412;2024-02-21T13:10:05;25.13;;;13.73;;
3865;SDS011;1948;53.250;10.412;2024-02-21T13:12:34;27.70;;;13.60;;
3865;SDS011;1948;53.250;10.412;2024-02-21T13:15:03;22.20;;;13.30;;
3865;SDS011;1948;53.250;10.412;2024-02-21T13:17:33;19.83;;;11.10;;
3865;SDS011;1948;53.250;10.412;2024-02-21T13:20:03;27.57;;;12.07;;
3865;SDS011;1948;53.250;10.412;2024-02-21T13:22:32;19.00;;;11.87;;
3865;SDS011;1948;53.250;10.412;2024-02-21T13:25:02;28.50;;;11.60;;
3865;SDS011;1948;53.250;10.412;2024-02-21T13:27:31;21.00;;;11.00;;
3865;SDS011;1948;53.250;10.412;2024-02-21T13:30:00;23.47;;;11.37;;
3865;SDS011;1948;53.250;10.412;2024-02-21T13:32:32;15.87;;;10.83;;
3865;SDS011;1948;53.250;10.412;2024-02-21T13:35:01;20.03;;;10.30;;
3865;SDS011;1948;53.250;10.412;2024-02-21T13:37:29;38.57;;;9.67;;
3865;SDS011;1948;53.250;10.412;2024-02-21T13:39:57;20.17;;;10.00;;
3865;SDS011;1948;53.250;10.412;2024-02-21T13:42:27;17.33;;;9.67;;
3865;SDS011;1948;53.250;10.412;2024-02-21T13:44:56;13.60;;;9.33;;
3865;SDS011;1948;53.250;10.412;2024-02-21T13:47:26;14.73;;;9.93;;
3865;SDS011;1948;53.250;10.412;2024-02-21T13:49:57;23.10;;;9.60;;
3865;SDS011;1948;53.250;10.412;2024-02-21T13:52:24;32.33;;;9.80;;
3865;SDS011;1948;53.250;10.412;2024-02-21T13:54:56;11.00;;;8.10;;
3865;SDS011;1948;53.250;10.412;2024-02-21T13:57:25;11.70;;;7.90;;
3865;SDS011;1948;53.250;10.412;2024-02-21T13:59:57;13.33;;;7.57;;
3865;SDS011;1948;53.250;10.412;2024-02-21T14:02:25;13.07;;;7.37;;
3865;SDS011;1948;53.250;10.412;2024-02-21T14:04:55;18.50;;;8.27;;
3865;SDS011;1948;53.250;10.412;2024-02-21T14:07:25;14.60;;;7.93;;
3865;SDS011;1948;53.250;10.412;2024-02-21T14:09:52;8.70;;;6.60;;
3865;SDS011;1948;53.250;10.412;2024-02-21T14:12:19;10.20;;;6.53;;
3865;SDS011;1948;53.250;10.412;2024-02-21T14:14:52;13.23;;;6.60;;
3865;SDS011;1948;53.250;10.412;2024-02-21T14:17:24;17.37;;;7.37;;
3865;SDS011;1948;53.250;10.412;2024-02-21T14:19:54;14.30;;;6.50;;
3865;SDS011;1948;53.250;10.412;2024-02-21T14:22:21;14.97;;;5.57;;
3865;SDS011;1948;53.250;10.412;2024-02-21T14:24:50;11.67;;;5.83;;
3865;SDS011;1948;53.250;10.412;2024-02-21T14:27:20;5.30;;;4.80;;
3865;SDS011;1948;53.250;10.412;2024-02-21T14:29:49;8.57;;;5.50;;
3865;SDS011;1948;53.250;10.412;2024-02-21T14:32:16;5.50;;;5.00;;
3865;SDS011;1948;53.250;10.412;2024-02-21T14:34:43;12.93;;;5.20;;
3865;SDS011;1948;53.250;10.412;2024-02-21T14:37:16;4.73;;;4.30;;
3865;SDS011;1948;53.250;10.412;2024-02-21T14:39:45;9.03;;;4.90;;
3865;SDS011;1948;53.250;10.412;2024-02-21T14:42:12;9.50;;;4.93;;
3865;SDS011;1948;53.250;10.412;2024-02-21T14:44:39;12.83;;;4.90;;
3865;SDS011;1948;53.250;10.412;2024-02-21T14:47:07;11.43;;;4.20;;
3865;SDS011;1948;53.250;10.412;2024-02-21T14:49:36;28.03;;;4.87;;
3865;SDS011;1948;53.250;10.412;2024-02-21T14:52:03;13.00;;;4.00;;
3865;SDS011;1948;53.250;10.412;2024-02-21T14:54:33;9.60;;;4.27;;
3865;SDS011;1948;53.250;10.412;2024-02-21T14:57:04;7.87;;;3.87;;